Irving, TX

4:29 PM CDT on March 31, 2015 (GMT -0500)
Dallas-Fort Worth International | | Change Station
CLOSE
Current Station
Airport
Location: Dallas/Ft Worth,
Elevation: 597 ft
Nearby Weather Stations

Elev 597 ft 32.90 °N, 97.02 °W | Updated 36 minutes ago

Partly Cloudy
Partly Cloudy
82 °F
Feels Like 84 °F
N
18
Wind Variable Wind from South
Gusts 24 mph

Today
High -- | Low -- °F
--% Chance of Precip.
Yesterday
High -- | Low -- °F
Precip. -- in
7:17 AM 7:47 PM
Waxing Gibbous, 89% visible
Pressure 29.87 in
Visibility 10.0 miles
Clouds Few 4000 ft
Mostly Cloudy 30000 ft
Heat Index 84 °F
Dew Point 65 °F
Humidity 56%
Rainfall 0.00 in
Snow Depth Not available.
UV 4 out of 12
Pollen 11.60 out of 12
Air Quality Not available.
Flu Activity Not available.
METAR KDFW 312053Z 18016G21KT 10SM FEW040 BKN300 28/18 A2989 RMK AO2 SLP114 60000 T02780183 58027

More Conditions Fewer Conditions

Pressure 29.87 in
Visibility 10.0 miles
Clouds Few 4000 ft
Mostly Cloudy 30000 ft
Heat Index 84 °F
Dew Point 65 °F
Humidity 56%
Rainfall 0.00 in
Snow Depth Not available.
UV 4 out of 12
Pollen 11.60 out of 12
Air Quality Not available.
Flu Activity Not available.
METAR KDFW 312053Z 18016G21KT 10SM FEW040 BKN300 28/18 A2989 RMK AO2 SLP114 60000 T02780183 58027

More Conditions Fewer Conditions

10-Day Weather Forecast

Almanac

Astronomy

Mar. 31, 2015 Rise Set
Actual Time
Civil Twilight
Nautical Twilight
Astronomical Twilight
Moon
Length of Visible Light
Length of Day
Tomorrow will be .
, % of the Moon is Illuminated

Today's Extremes

State Highs State Lows

Community

WunderPhotos

Upload Photos

1,809,840 photos uploaded!

WunderBlogs® & News

Nearby

Air Quality

  Air Quality AQ Index Pollutant
Not available.

Snow Depth

Station Depth Elevation

Earthquake Activity

City Distance Mag. Time & Date
Minimum magnitude displayed is 2.5.

Coastal Water Temperatures

Place Temperature

Stations

Nearby Weather Stations

Station Location Temp. Windchill Dew Point Humidity Wind Precip. Elev Updated Type